createdAt,value
2018-07-17T14:19:20.839Z,28.27
2018-07-17T14:20:21.308Z,28.19
2018-07-17T14:22:14.619Z,28.09
2018-07-17T14:23:14.305Z,28.07
2018-07-17T14:25:06.941Z,28.09
2018-07-17T14:26:06.624Z,28.15
2018-07-17T14:28:00.400Z,28.22
2018-07-17T14:29:00.345Z,28.32
2018-07-17T14:30:53.827Z,28.35
2018-07-17T14:31:53.400Z,28.44
2018-07-17T14:33:46.602Z,28.40
2018-07-17T14:34:46.308Z,28.34
2018-07-17T14:36:39.919Z,28.32
2018-07-17T14:37:39.663Z,28.28
2018-07-17T14:39:33.462Z,28.42
2018-07-17T14:40:33.083Z,28.27
2018-07-17T14:42:27.091Z,28.30
2018-07-17T14:43:26.493Z,28.25
2018-07-17T14:45:20.252Z,28.32
2018-07-17T14:46:19.854Z,28.37
2018-07-17T14:48:13.269Z,28.34
2018-07-17T14:49:13.256Z,28.38
2018-07-17T14:51:06.180Z,28.44
2018-07-17T14:52:06.140Z,28.50
2018-07-17T14:53:59.764Z,28.61
2018-07-17T14:54:59.542Z,28.62
2018-07-17T14:56:53.188Z,28.64
2018-07-17T14:57:52.946Z,28.84
2018-07-17T14:59:46.332Z,28.93
2018-07-17T15:00:46.307Z,28.96
2018-07-17T15:02:39.831Z,28.93
2018-07-17T15:03:39.701Z,28.90
2018-07-17T15:05:32.635Z,29.00
2018-07-17T15:06:32.610Z,29.07
2018-07-17T15:08:25.999Z,29.15
2018-07-17T15:09:25.982Z,29.12
2018-07-17T15:11:19.514Z,29.18
2018-07-17T15:12:19.380Z,29.15
2018-07-17T15:14:12.786Z,29.00
2018-07-17T15:15:12.779Z,29.10
2018-07-17T15:17:05.936Z,29.12
2018-07-17T15:18:05.736Z,29.06
2018-07-17T15:19:59.086Z,29.18
2018-07-17T15:20:59.076Z,29.17
2018-07-17T15:22:52.053Z,29.09
2018-07-17T15:23:51.990Z,29.12
2018-07-17T15:25:44.899Z,28.98
2018-07-17T15:26:44.909Z,29.06
2018-07-17T15:28:38.300Z,29.21
2018-07-17T15:29:38.270Z,29.18
2018-07-17T15:31:31.363Z,29.04
2018-07-17T15:32:31.193Z,29.09
2018-07-17T15:34:25.566Z,28.96
2018-07-17T15:35:25.568Z,28.89
2018-07-17T15:37:18.969Z,28.89
2018-07-17T15:38:19.005Z,28.71
2018-07-17T15:40:12.074Z,28.56
2018-07-17T15:41:11.877Z,28.62
2018-07-17T15:43:04.756Z,28.71
2018-07-17T15:44:04.757Z,28.74
2018-07-17T15:45:57.663Z,28.77
2018-07-17T15:46:57.658Z,28.79
2018-07-17T15:48:51.117Z,28.96
2018-07-17T15:49:51.033Z,28.87
2018-07-17T15:51:45.447Z,28.91
2018-07-17T15:52:45.437Z,28.96
2018-07-17T15:54:39.019Z,28.75
2018-07-17T15:55:38.825Z,28.77
2018-07-17T15:57:32.224Z,28.86
2018-07-17T15:58:32.415Z,28.87
2018-07-17T16:00:25.759Z,28.98
2018-07-17T16:01:25.625Z,28.98
2018-07-17T16:03:19.028Z,28.83
2018-07-17T16:04:18.980Z,28.74
2018-07-17T16:06:12.457Z,28.42
2018-07-17T16:07:12.390Z,28.38
2018-07-17T16:09:05.576Z,28.32
2018-07-17T16:10:05.620Z,28.32
2018-07-17T16:11:59.504Z,28.16
2018-07-17T16:12:59.096Z,28.15
2018-07-17T16:14:52.384Z,28.27
2018-07-17T16:17:05.456Z,28.24
2018-07-17T16:18:05.207Z,28.19
2018-07-17T16:19:59.618Z,27.94
2018-07-17T16:20:59.614Z,27.83
2018-07-17T16:22:53.001Z,27.87
2018-07-17T16:23:52.991Z,27.78
2018-07-17T16:25:45.908Z,27.75
2018-07-17T16:26:45.880Z,27.76
2018-07-17T16:28:38.810Z,27.66
2018-07-17T16:29:38.776Z,27.61
2018-07-17T16:31:32.211Z,27.58
2018-07-17T16:32:32.210Z,27.54
2018-07-17T16:34:29.109Z,27.38
2018-07-17T16:35:28.114Z,27.26
2018-07-17T16:37:21.523Z,27.19
2018-07-17T16:38:21.504Z,27.01
2018-07-17T16:40:14.409Z,26.73
2018-07-17T16:41:14.407Z,26.57
2018-07-17T16:43:08.604Z,26.28
2018-07-17T16:44:07.313Z,26.05
2018-07-17T16:46:06.502Z,25.53
2018-07-17T16:47:01.392Z,25.36
2018-07-17T16:48:54.321Z,24.96
2018-07-17T16:49:54.304Z,24.86
2018-07-17T16:51:47.690Z,24.41
2018-07-17T16:52:47.690Z,24.13
2018-07-17T16:54:41.113Z,23.86
2018-07-17T16:55:41.081Z,23.73
2018-07-17T16:57:37.423Z,23.45
2018-07-17T16:58:33.986Z,23.41
2018-07-17T17:00:28.019Z,23.25
2018-07-17T17:01:28.008Z,23.17
2018-07-17T17:03:20.974Z,23.11
2018-07-17T17:04:20.897Z,23.06
2018-07-17T17:06:14.024Z,23.06
2018-07-17T17:07:13.804Z,22.95
2018-07-17T17:09:06.749Z,22.85
2018-07-17T17:11:47.401Z,22.62
2018-07-17T17:12:47.121Z,22.53
2018-07-17T17:14:40.785Z,22.56
2018-07-17T17:15:41.070Z,22.51
2018-07-17T17:19:14.350Z,22.56
2018-07-17T17:20:14.444Z,22.46
2018-07-17T17:22:11.379Z,22.38
2018-07-17T17:23:10.439Z,22.33
2018-07-17T17:28:19.728Z,22.28
2018-07-17T17:29:19.683Z,22.27
2018-07-17T17:31:13.072Z,22.23
2018-07-17T17:32:13.056Z,22.23
2018-07-17T17:34:06.374Z,22.28
2018-07-17T17:35:06.051Z,22.30
2018-07-17T17:37:00.454Z,22.30
2018-07-17T17:37:59.838Z,22.36
2018-07-17T17:39:53.227Z,22.31
2018-07-17T17:40:53.258Z,22.28
2018-07-17T17:42:48.202Z,22.13
2018-07-17T17:43:46.430Z,22.27
2018-07-17T17:45:40.017Z,22.18
2018-07-17T17:46:39.675Z,22.25
2018-07-17T17:48:33.141Z,22.15
2018-07-17T17:49:33.587Z,22.09
2018-07-17T17:51:27.525Z,22.03
2018-07-17T17:52:27.134Z,22.04
2018-07-17T17:54:20.286Z,22.23
2018-07-17T17:55:20.044Z,22.13
2018-07-17T17:57:13.386Z,22.23
2018-07-17T17:58:12.998Z,22.19
2018-07-17T18:00:07.458Z,22.09
2018-07-17T18:01:06.776Z,22.07
2018-07-17T18:03:01.687Z,22.07
2018-07-17T18:03:59.714Z,22.18
2018-07-17T18:05:54.675Z,22.16
2018-07-17T18:06:55.028Z,22.22
2018-07-17T18:08:47.456Z,22.23
2018-07-17T18:09:47.423Z,22.19
2018-07-17T18:11:41.398Z,22.28
2018-07-17T18:12:41.097Z,22.27
2018-07-17T18:14:37.027Z,22.19
2018-07-17T18:15:36.403Z,22.33
2018-07-17T18:17:28.209Z,22.34
2018-07-17T18:18:27.612Z,22.25
2018-07-17T18:20:22.182Z,22.30
2018-07-17T18:21:21.682Z,22.19
2018-07-17T18:23:16.371Z,22.11
2018-07-17T18:24:16.987Z,22.07
2018-07-17T18:26:10.399Z,22.09
2018-07-17T18:27:09.852Z,22.04
2018-07-17T18:29:03.279Z,22.03
2018-07-17T18:30:03.802Z,22.09
2018-07-17T18:31:56.599Z,22.12
2018-07-17T18:32:56.551Z,22.09
2018-07-17T18:34:50.004Z,22.13
2018-07-17T18:35:49.979Z,22.09
2018-07-17T18:37:43.487Z,22.00
2018-07-17T18:38:43.131Z,22.06
2018-07-17T18:40:36.636Z,21.96
2018-07-17T18:41:36.203Z,21.97
2018-07-17T18:43:29.904Z,21.88
2018-07-17T18:44:29.895Z,21.90
2018-07-17T18:46:23.346Z,21.97
2018-07-17T18:47:23.737Z,21.98
2018-07-17T18:49:16.813Z,21.93
2018-07-17T18:50:16.695Z,21.96
2018-07-17T18:52:10.130Z,21.91
2018-07-17T18:53:10.381Z,21.91
2018-07-17T18:55:07.635Z,21.94
2018-07-17T18:56:03.125Z,21.82
2018-07-17T18:58:02.438Z,21.85
2018-07-17T19:00:12.475Z,21.78
2018-07-17T19:01:11.570Z,21.74
2018-07-17T19:03:08.695Z,21.67
2018-07-17T19:04:07.666Z,21.66
2018-07-17T19:06:01.637Z,21.67
2018-07-17T19:07:00.182Z,21.66
2018-07-17T19:08:53.457Z,21.62
2018-07-17T19:09:54.896Z,21.51
2018-07-17T19:11:49.387Z,21.45
2018-07-17T19:12:47.765Z,21.45
2018-07-17T19:14:41.477Z,21.44
2018-07-17T19:15:40.821Z,21.47
2018-07-17T19:17:35.636Z,21.38
2018-07-17T19:18:34.256Z,21.40
2018-07-17T19:20:27.464Z,21.30
2018-07-17T19:21:27.126Z,21.23
2018-07-17T19:23:22.331Z,21.18
2018-07-17T19:24:21.484Z,21.08
2018-07-17T19:26:15.561Z,20.98
2018-07-17T19:27:15.189Z,21.01
2018-07-17T19:29:19.195Z,21.07
2018-07-17T19:30:08.775Z,20.90
2018-07-17T19:32:03.694Z,20.88
2018-07-17T19:33:01.102Z,20.79
2018-07-17T19:34:54.825Z,20.75
2018-07-17T19:35:54.920Z,20.74
2018-07-17T19:37:52.245Z,20.63
2018-07-17T19:38:50.473Z,20.71
2018-07-17T19:40:44.213Z,20.65
2018-07-17T19:41:44.170Z,20.56
2018-07-17T19:43:37.541Z,20.58
2018-07-17T19:44:37.512Z,20.55
2018-07-17T19:46:39.530Z,20.44
2018-07-17T19:47:31.937Z,20.50
2018-07-17T19:49:25.412Z,20.41
2018-07-17T19:50:25.305Z,20.34
2018-07-17T19:52:18.784Z,20.30
2018-07-17T19:53:18.749Z,20.30
2018-07-17T19:55:12.011Z,20.29
2018-07-17T19:56:12.116Z,20.23
2018-07-17T19:58:05.484Z,20.07
2018-07-17T19:59:05.453Z,20.08
2018-07-17T20:01:02.359Z,20.00
2018-07-17T20:02:00.421Z,20.11
2018-07-17T20:03:53.281Z,19.96
2018-07-17T20:04:52.987Z,19.99
2018-07-17T20:06:46.440Z,19.96
2018-07-17T20:07:46.386Z,19.87
2018-07-17T20:09:45.982Z,19.79
2018-07-17T20:10:38.927Z,19.77
2018-07-17T20:12:32.137Z,19.75
2018-07-17T20:13:34.375Z,19.82
2018-07-17T20:15:25.494Z,19.70
2018-07-17T20:16:25.145Z,19.72
2018-07-17T20:18:18.907Z,19.64
2018-07-17T20:19:19.441Z,19.56
2018-07-17T20:21:12.370Z,19.62
2018-07-17T20:22:12.060Z,19.71
2018-07-17T20:24:13.329Z,19.54
2018-07-17T20:25:08.223Z,19.52
2018-07-17T20:27:02.561Z,19.50
2018-07-17T20:28:03.101Z,19.50
2018-07-17T20:29:55.852Z,19.42
2018-07-17T20:30:55.604Z,19.49
2018-07-17T20:32:48.610Z,19.44
2018-07-17T20:35:01.925Z,19.34
2018-07-17T20:36:03.938Z,19.34
2018-07-17T20:37:59.564Z,19.32
2018-07-17T20:39:00.110Z,19.35
2018-07-17T20:40:52.600Z,19.27
2018-07-17T20:41:52.571Z,19.37
2018-07-17T20:43:46.510Z,19.31
2018-07-17T20:44:45.883Z,19.30
2018-07-17T20:46:39.308Z,19.30
2018-07-17T20:47:39.278Z,19.31
2018-07-17T20:49:33.853Z,19.30
2018-07-17T20:50:33.842Z,19.24
2018-07-17T20:52:27.085Z,19.26
2018-07-17T20:53:29.208Z,19.27
2018-07-17T20:55:20.434Z,19.24
2018-07-17T20:56:20.619Z,19.24
2018-07-17T20:58:13.809Z,19.17
2018-07-17T20:59:14.314Z,19.17
2018-07-17T21:01:07.238Z,19.15
2018-07-17T21:02:07.119Z,19.04
2018-07-17T21:04:00.618Z,19.09
2018-07-17T21:05:00.571Z,19.00
2018-07-17T21:06:59.144Z,19.08
2018-07-17T21:07:54.622Z,19.13
2018-07-17T21:09:51.006Z,19.05
2018-07-17T21:10:50.549Z,19.04
2018-07-17T21:12:44.900Z,19.07
2018-07-17T21:13:43.884Z,19.00
2018-07-17T21:15:37.917Z,19.04
2018-07-17T21:16:37.248Z,19.05
2018-07-17T21:18:59.609Z,19.08
2018-07-17T21:20:25.093Z,18.96
2018-07-17T21:21:25.063Z,19.05
2018-07-17T21:23:18.382Z,18.93
2018-07-17T21:24:18.926Z,18.97
2018-07-17T21:26:11.889Z,18.82
2018-07-17T21:27:11.851Z,18.94
2018-07-17T21:29:05.925Z,18.82
2018-07-17T21:30:05.075Z,18.75
2018-07-17T21:31:58.550Z,18.82
2018-07-17T21:32:59.073Z,18.71
2018-07-17T21:34:51.406Z,18.66
2018-07-17T21:35:52.109Z,18.74
2018-07-17T21:37:44.343Z,18.74
2018-07-17T21:38:44.005Z,18.74
2018-07-17T21:40:37.941Z,18.70
2018-07-17T21:41:37.357Z,18.70
2018-07-17T21:43:31.038Z,18.74
2018-07-17T21:44:30.734Z,18.74
2018-07-17T21:46:24.198Z,18.74
2018-07-17T21:47:24.110Z,18.70
2018-07-17T21:49:17.793Z,18.74
2018-07-17T21:50:17.519Z,18.74
2018-07-17T21:52:11.298Z,18.74
2018-07-17T21:53:11.828Z,18.75
2018-07-17T21:55:05.191Z,18.75
2018-07-17T21:56:04.719Z,18.66
2018-07-17T21:57:58.612Z,18.64
2018-07-17T21:58:57.774Z,18.71
2018-07-17T22:00:51.405Z,18.74
2018-07-17T22:01:51.514Z,18.75
2018-07-17T22:03:45.533Z,18.66
2018-07-17T22:04:45.274Z,18.66
2018-07-17T22:06:38.331Z,18.66
2018-07-17T22:07:38.146Z,18.66
2018-07-17T22:09:31.637Z,18.52
2018-07-17T22:10:31.280Z,18.48
2018-07-17T22:12:24.944Z,18.54
2018-07-17T22:13:24.993Z,18.46
2018-07-17T22:15:18.553Z,18.49
2018-07-17T22:16:18.301Z,18.42
2018-07-17T22:18:11.740Z,18.46
2018-07-17T22:19:11.720Z,18.41
2018-07-17T22:21:04.738Z,18.45
2018-07-17T22:22:04.318Z,18.33
2018-07-17T22:23:58.074Z,18.36
2018-07-17T22:24:58.077Z,18.31
2018-07-17T22:26:51.438Z,18.39
2018-07-17T22:27:51.430Z,18.30
2018-07-17T22:29:44.817Z,18.38
2018-07-17T22:30:44.399Z,18.30
2018-07-17T22:32:38.109Z,18.39
2018-07-17T22:33:38.140Z,18.36
2018-07-17T22:35:33.534Z,18.28
2018-07-17T22:36:32.500Z,18.36
2018-07-17T22:38:25.950Z,18.38
2018-07-17T22:39:25.553Z,18.46
2018-07-17T22:41:19.237Z,18.39
2018-07-17T22:42:19.248Z,18.34
2018-07-17T22:44:12.737Z,18.27
2018-07-17T22:45:12.605Z,18.34
2018-07-17T22:47:05.501Z,18.38
2018-07-17T22:48:05.143Z,18.38
2018-07-17T22:49:58.645Z,18.31
2018-07-17T22:50:58.664Z,18.27
2018-07-17T22:52:52.584Z,18.30
2018-07-17T22:53:52.262Z,18.23
2018-07-17T22:55:45.145Z,18.34
2018-07-17T22:56:45.419Z,18.21
2018-07-17T22:58:38.787Z,18.17
2018-07-17T22:59:38.527Z,18.13
2018-07-17T23:01:35.014Z,18.17
2018-07-17T23:02:32.189Z,18.11
2018-07-17T23:04:29.581Z,18.13
2018-07-17T23:05:29.792Z,18.09
2018-07-17T23:07:23.259Z,18.13
2018-07-17T23:08:23.186Z,18.09
2018-07-17T23:10:16.507Z,18.09
2018-07-17T23:11:16.548Z,18.06
2018-07-17T23:13:09.973Z,18.09
2018-07-17T23:14:09.898Z,18.09
2018-07-17T23:16:05.807Z,18.11
2018-07-17T23:17:05.675Z,18.09
2018-07-17T23:19:00.096Z,18.09
2018-07-17T23:20:00.166Z,18.02
2018-07-17T23:21:53.639Z,18.15
2018-07-17T23:22:53.486Z,18.11
2018-07-17T23:24:46.426Z,17.99
2018-07-17T23:25:46.086Z,17.96
2018-07-17T23:27:39.377Z,17.94
2018-07-17T23:28:39.018Z,17.99
2018-07-17T23:30:33.133Z,17.93
2018-07-17T23:31:32.798Z,17.94
2018-07-17T23:33:26.867Z,17.88
2018-07-17T23:34:25.773Z,17.88
2018-07-17T23:36:19.040Z,17.76
2018-07-17T23:37:18.704Z,17.81
2018-07-17T23:39:11.579Z,17.83
2018-07-17T23:40:11.502Z,17.84
2018-07-17T23:42:05.311Z,17.83
2018-07-17T23:43:05.841Z,17.79
2018-07-17T23:44:58.730Z,17.76
2018-07-17T23:45:58.237Z,17.78
2018-07-17T23:47:52.072Z,17.81
2018-07-17T23:48:52.228Z,17.79
2018-07-17T23:50:44.951Z,17.84
2018-07-17T23:51:44.884Z,17.69
2018-07-17T23:53:39.451Z,17.66
2018-07-17T23:54:37.893Z,17.68
2018-07-17T23:56:32.350Z,17.65
2018-07-17T23:57:31.248Z,17.68
2018-07-17T23:59:25.578Z,17.68
